Flight Track Log - Related Links

Times and Time Zones

All times are in EDT time to prevent confusion due to time zone crossing. See the EJA396 flight status page for this flight to view local times or setup timezone preferences in your user account.

Time Position Orientation Groundspeed Altitude Reporting Facility
EDT Latitude Longitude Course Direction KTS MPH feet Rate Location/Type
Thu 07:57:43 PM 33.7628 -118.2308 189° South 226 260 5,200  Level Los Center
Thu 07:58:45 PM 33.6958 -118.2458 191° South 237 273 8,500 3,648 Climbing Los Center
Thu 07:59:48 PM 33.6631 -118.1814 121° Southeast 266 306 12,800 3,504 Climbing Los Center
Thu 08:01:02 PM 33.7369 -118.1039 41° Northeast 299 344 16,500 2,691 Climbing Los Center
Thu 08:02:04 PM 33.8314 -118.0153 38° Northeast 361 415 18,900 1,887 Climbing Los Center
Thu 08:03:06 PM 33.9006 -117.9494 38° Northeast 383 441 20,400 1,728 Climbing Los Center
Thu 08:04:09 PM 34.0111 -117.8481 37° Northeast 411 473 22,500 2,064 Climbing Los Center
Thu 08:05:11 PM 34.1233 -117.7364 39° Northeast 431 496 24,700 1,935 Climbing Los Center
Thu 08:06:13 PM 34.2053 -117.6214 49° Northeast 449 517 26,500 1,742 Climbing Los Center
Thu 08:07:15 PM 34.2906 -117.5044 49° Northeast 461 531 28,300 1,210 Climbing Los Center
Thu 08:08:17 PM 34.3786 -117.3839 48° Northeast 475 547 29,000 339 Climbing Los Center
Thu 08:09:19 PM 34.4744 -117.2536 48° Northeast 496 571 29,000  Level Los Center
Thu 08:10:21 PM 34.5672 -117.1250 49° Northeast 507 583 29,000  Level Los Center
Thu 08:11:23 PM 34.6589 -116.9972 49° Northeast 507 583 29,000  Level Los Center
Thu 08:12:26 PM 34.7706 -116.8431 49° Northeast 509 586 29,000  Level Los Center
Thu 08:13:28 PM 34.8622 -116.7128 49° Northeast 511 588 29,000 -339 Level Los Center
Thu 08:14:30 PM 34.9567 -116.5828 48° Northeast 515 593 28,300 -1,887 Descending Los Center
Thu 08:15:32 PM 35.0494 -116.4689 45° Northeast 485 558 25,100 -2,129 Descending Los Center
Thu 08:16:34 PM 35.1183 -116.3797 47° Northeast 466 536 23,900 -532 Descending Los Center
Thu 08:17:36 PM 35.2239 -116.2453 46° Northeast 459 528 24,000 48 Climbing Los Center
Thu 08:18:38 PM 35.3347 -116.1089 45° Northeast 468 539 24,000 -871 Level Los Center
Thu 08:19:40 PM 35.4247 -115.9944 46° Northeast 469 540 22,200 -2,208 Descending Los Center
Thu 08:20:43 PM 35.5089 -115.8931 44° Northeast 442 509 19,400 -3,196 Descending Los Center
Thu 08:21:27 PM 35.5808 -115.8058 45° Northeast 407 468 16,500 -3,540 Descending Los Center
Thu 08:22:23 PM 35.6381 -115.7294 47° Northeast 367 422 13,500 -1,810 Descending Los Center
Thu 08:23:23 PM 35.7056 -115.6417 47° Northeast 330 380 13,000 -250 Descending Los Center
Thu 08:24:23 PM 35.7731 -115.5750 39° Northeast 319 367 13,000  Level Los Center
Thu 08:25:24 PM 35.8672 -115.5708 North 324 373 13,000 -49 Level Los Center
Thu 08:26:25 PM 35.9531 -115.5592 North 301 346 12,900 -396 Descending Los Center
Thu 08:26:55 PM 35.9786 -115.5347 38° Northeast 311 358 12,400 -984 Descending Los Center
Thu 08:27:26 PM 36.0014 -115.4717 66° East 320 368 11,900 -774 Descending Los Center
Thu 08:27:57 PM 36.0122 -115.4342 70° East 317 365 11,600 -885 Descending Los Center
Thu 08:28:27 PM 36.0300 -115.3747 70° East 299 344 11,000 -968 Descending Los Center
Thu 08:28:59 PM 36.0289 -115.3378 92° East 300 345 10,600 -1,137 Descending Los Center
Thu 08:30:02 PM 36.0186 -115.2214 96° East 288 331 9,200 -1,200 Descending Los Center
Thu 08:31:04 PM 36.0122 -115.1264 95° East 281 323 8,100 -1,548 Descending Los Center
Thu 08:32:06 PM 36.0064 -115.0353 94° East 273 314 6,000 -1,016 Descending Los Center
Thu 08:33:08 PM 36.0225 -114.9756 72° East 241 277 6,000 -242 Level Los Center
Thu 08:34:10 PM 36.0933 -114.9594 10° North 220 253 5,500 -532 Descending Los Center
Thu 08:35:12 PM 36.1300 -114.9922 324° Northwest 204 235 4,900 -912 Descending Los Center
Thu 08:36:15 PM 36.1358 -115.0589 276° West 198 228 3,600 -672 Descending Los Center
Thu 08:37:17 PM 36.1411 -115.1175 276° West 187 215 3,500 -553 Descending Los Center
Thu 08:38:36 PM 36.1092 -115.1519 221° Southwest 115 132 2,300 -629 Descending Los Center
Thu 08:39:21 PM 36.0911 -115.1608 202° Southwest 126 145 2,200 -133 Descending Los Center
Thu 08:41:00 PM 36.0801 -115.1523 96° East  Level Estimated

Login

Don't have an account? Register now (free) for customized features, flight alerts, and more!